Aviation Digital Data Service (ADDS)

Output produced by METARs form (1801 UTC 21 August 2014)
found at http://www.aviationweather.gov/adds/metars/
 
KGED 211754Z AUTO 10009G18KT 10SM BKN023 OVC032 28/22 A3003 RMK AO2 SLP168 T02830222 10294 20217 58006 $